sensor_id;sensor_type;location;lat;lon;timestamp;pressure;altitude;pressure_sealevel;temperature;humidity
70323;BME280;57735;56.264;43.898;2024-01-25T00:01:38;100065.53;;;-3.45;84.98
70323;BME280;57735;56.264;43.898;2024-01-25T00:04:09;100069.06;;;-3.46;84.91
70323;BME280;57735;56.264;43.898;2024-01-25T00:06:40;100064.00;;;-3.49;85.07
70323;BME280;57735;56.264;43.898;2024-01-25T00:09:11;100056.97;;;-3.47;85.12
70323;BME280;57735;56.264;43.898;2024-01-25T00:11:42;100056.88;;;-3.45;85.08
70323;BME280;57735;56.264;43.898;2024-01-25T00:14:16;100053.44;;;-3.46;84.92
70323;BME280;57735;56.264;43.898;2024-01-25T00:16:48;100058.50;;;-3.43;85.08
70323;BME280;57735;56.264;43.898;2024-01-25T00:19:19;100061.75;;;-3.38;85.41
70323;BME280;57735;56.264;43.898;2024-01-25T00:21:50;100057.19;;;-3.34;85.05
70323;BME280;57735;56.264;43.898;2024-01-25T00:24:21;100059.75;;;-3.33;84.77
70323;BME280;57735;56.264;43.898;2024-01-25T00:26:51;100051.91;;;-3.33;84.79
70323;BME280;57735;56.264;43.898;2024-01-25T00:29:22;100041.50;;;-3.33;84.71
70323;BME280;57735;56.264;43.898;2024-01-25T00:31:53;100047.72;;;-3.35;84.77
70323;BME280;57735;56.264;43.898;2024-01-25T00:34:24;100051.16;;;-3.35;84.79
70323;BME280;57735;56.264;43.898;2024-01-25T00:36:55;100049.63;;;-3.39;84.95
70323;BME280;57735;56.264;43.898;2024-01-25T00:39:26;100047.94;;;-3.40;85.03
70323;BME280;57735;56.264;43.898;2024-01-25T00:42:03;100047.09;;;-3.40;85.25
70323;BME280;57735;56.264;43.898;2024-01-25T00:44:35;100050.47;;;-3.38;85.19
70323;BME280;57735;56.264;43.898;2024-01-25T00:47:09;100046.94;;;-3.37;85.32
70323;BME280;57735;56.264;43.898;2024-01-25T00:49:40;100049.31;;;-3.33;85.42
70323;BME280;57735;56.264;43.898;2024-01-25T00:52:11;100045.03;;;-3.34;85.19
70323;BME280;57735;56.264;43.898;2024-01-25T00:54:42;100045.88;;;-3.33;85.23
70323;BME280;57735;56.264;43.898;2024-01-25T00:57:13;100050.16;;;-3.32;85.21
70323;BME280;57735;56.264;43.898;2024-01-25T00:59:44;100041.34;;;-3.30;85.10
70323;BME280;57735;56.264;43.898;2024-01-25T01:02:15;100043.81;;;-3.27;85.28
70323;BME280;57735;56.264;43.898;2024-01-25T01:04:46;100041.34;;;-3.30;85.02
70323;BME280;57735;56.264;43.898;2024-01-25T01:07:17;100040.44;;;-3.29;85.18
70323;BME280;57735;56.264;43.898;2024-01-25T01:09:48;100028.94;;;-3.25;85.00
70323;BME280;57735;56.264;43.898;2024-01-25T01:12:19;100034.16;;;-3.25;85.01
70323;BME280;57735;56.264;43.898;2024-01-25T01:14:50;100034.03;;;-3.22;85.05
70323;BME280;57735;56.264;43.898;2024-01-25T01:17:21;100038.06;;;-3.16;84.96
70323;BME280;57735;56.264;43.898;2024-01-25T01:19:52;100032.78;;;-3.14;84.61
70323;BME280;57735;56.264;43.898;2024-01-25T01:22:23;100030.94;;;-3.12;84.80
70323;BME280;57735;56.264;43.898;2024-01-25T01:24:53;100025.44;;;-3.06;84.78
70323;BME280;57735;56.264;43.898;2024-01-25T01:27:24;100025.44;;;-3.06;84.53
70323;BME280;57735;56.264;43.898;2024-01-25T01:29:55;100025.44;;;-3.06;84.35
70323;BME280;57735;56.264;43.898;2024-01-25T01:32:29;100019.31;;;-3.05;84.26
70323;BME280;57735;56.264;43.898;2024-01-25T01:35:00;100023.66;;;-3.06;84.22
70323;BME280;57735;56.264;43.898;2024-01-25T01:37:30;100023.91;;;-3.10;84.12
70323;BME280;57735;56.264;43.898;2024-01-25T01:40:01;100025.59;;;-3.09;84.37
70323;BME280;57735;56.264;43.898;2024-01-25T01:42:34;100012.41;;;-3.06;84.09
70323;BME280;57735;56.264;43.898;2024-01-25T01:45:06;100016.78;;;-3.07;84.19
70323;BME280;57735;56.264;43.898;2024-01-25T01:47:40;100022.06;;;-3.08;84.21
70323;BME280;57735;56.264;43.898;2024-01-25T01:50:11;100018.69;;;-3.10;84.29
70323;BME280;57735;56.264;43.898;2024-01-25T01:52:42;100022.06;;;-3.08;84.04
70323;BME280;57735;56.264;43.898;2024-01-25T01:55:13;100018.69;;;-3.10;84.23
70323;BME280;57735;56.264;43.898;2024-01-25T01:57:45;100019.44;;;-3.08;84.35
70323;BME280;57735;56.264;43.898;2024-01-25T02:00:17;100021.00;;;-3.04;84.04
70323;BME280;57735;56.264;43.898;2024-01-25T02:02:48;100029.41;;;-2.99;84.12
70323;BME280;57735;56.264;43.898;2024-01-25T02:05:19;100021.44;;;-2.96;83.88
70323;BME280;57735;56.264;43.898;2024-01-25T02:07:52;100020.75;;;-3.00;83.76
70323;BME280;57735;56.264;43.898;2024-01-25T02:10:24;100021.75;;;-3.02;83.81
70323;BME280;57735;56.264;43.898;2024-01-25T02:12:55;100012.25;;;-3.03;83.75
70323;BME280;57735;56.264;43.898;2024-01-25T02:15:28;100016.69;;;-3.05;83.78
70323;BME280;57735;56.264;43.898;2024-01-25T02:18:02;100007.78;;;-3.01;83.91
70323;BME280;57735;56.264;43.898;2024-01-25T02:20:33;100014.84;;;-3.03;83.50
70323;BME280;57735;56.264;43.898;2024-01-25T02:23:04;100032.00;;;-2.99;83.74
70323;BME280;57735;56.264;43.898;2024-01-25T02:25:38;100027.66;;;-2.99;83.71
70323;BME280;57735;56.264;43.898;2024-01-25T02:28:11;100029.47;;;-3.01;83.57
70323;BME280;57735;56.264;43.898;2024-01-25T02:30:42;100028.50;;;-2.98;83.49
70323;BME280;57735;56.264;43.898;2024-01-25T02:33:12;100022.50;;;-3.00;83.54
70323;BME280;57735;56.264;43.898;2024-01-25T02:35:43;100030.31;;;-3.00;83.19
70323;BME280;57735;56.264;43.898;2024-01-25T02:38:14;100031.25;;;-3.01;83.51
70323;BME280;57735;56.264;43.898;2024-01-25T02:40:45;100017.41;;;-3.02;83.33
70323;BME280;57735;56.264;43.898;2024-01-25T02:43:15;100035.72;;;-3.03;83.50
70323;BME280;57735;56.264;43.898;2024-01-25T02:45:46;100023.59;;;-3.04;83.32
70323;BME280;57735;56.264;43.898;2024-01-25T02:48:19;100021.91;;;-3.05;83.56
70323;BME280;57735;56.264;43.898;2024-01-25T02:50:50;100016.91;;;-3.10;83.62
70323;BME280;57735;56.264;43.898;2024-01-25T02:53:20;100034.25;;;-3.09;83.53
70323;BME280;57735;56.264;43.898;2024-01-25T02:55:53;100034.25;;;-3.09;83.57
70323;BME280;57735;56.264;43.898;2024-01-25T02:58:24;100032.63;;;-3.11;83.67
70323;BME280;57735;56.264;43.898;2024-01-25T03:00:55;100032.47;;;-3.08;83.67
70323;BME280;57735;56.264;43.898;2024-01-25T03:03:25;100043.75;;;-3.08;83.65
70323;BME280;57735;56.264;43.898;2024-01-25T03:05:57;100032.47;;;-3.08;83.38
70323;BME280;57735;56.264;43.898;2024-01-25T03:08:28;100027.28;;;-3.08;83.63
70323;BME280;57735;56.264;43.898;2024-01-25T03:11:09;100020.50;;;-3.12;83.56
70323;BME280;57735;56.264;43.898;2024-01-25T03:13:39;100022.34;;;-3.14;83.51
70323;BME280;57735;56.264;43.898;2024-01-25T03:16:10;100028.41;;;-3.14;83.86
70323;BME280;57735;56.264;43.898;2024-01-25T03:18:41;100035.38;;;-3.14;83.78
70323;BME280;57735;56.264;43.898;2024-01-25T03:21:12;100026.06;;;-3.19;83.53
70323;BME280;57735;56.264;43.898;2024-01-25T03:23:43;100018.97;;;-3.17;83.73
70323;BME280;57735;56.264;43.898;2024-01-25T03:26:14;100031.78;;;-3.12;84.05
70323;BME280;57735;56.264;43.898;2024-01-25T03:28:45;100024.88;;;-3.13;83.61
70323;BME280;57735;56.264;43.898;2024-01-25T03:31:16;100021.59;;;-3.17;83.81
70323;BME280;57735;56.264;43.898;2024-01-25T03:33:46;100019.16;;;-3.20;83.85
70323;BME280;57735;56.264;43.898;2024-01-25T03:36:17;100025.09;;;-3.18;83.77
70323;BME280;57735;56.264;43.898;2024-01-25T03:38:48;100014.69;;;-3.18;83.86
70323;BME280;57735;56.264;43.898;2024-01-25T03:41:19;100014.47;;;-3.13;83.77
70323;BME280;57735;56.264;43.898;2024-01-25T03:43:50;100011.63;;;-3.08;83.70
70323;BME280;57735;56.264;43.898;2024-01-25T03:46:21;100009.03;;;-3.08;83.61
70323;BME280;57735;56.264;43.898;2024-01-25T03:48:52;99999.22;;;-3.03;83.58
70323;BME280;57735;56.264;43.898;2024-01-25T03:51:25;100001.75;;;-3.02;83.51
70323;BME280;57735;56.264;43.898;2024-01-25T03:53:56;100009.47;;;-3.00;83.41
70323;BME280;57735;56.264;43.898;2024-01-25T03:56:28;99993.09;;;-3.02;83.17
70323;BME280;57735;56.264;43.898;2024-01-25T03:58:59;100004.44;;;-3.03;83.51
70323;BME280;57735;56.264;43.898;2024-01-25T04:01:30;100005.50;;;-3.07;83.13
70323;BME280;57735;56.264;43.898;2024-01-25T04:04:03;100008.25;;;-3.10;83.36
70323;BME280;57735;56.264;43.898;2024-01-25T04:06:34;100003.19;;;-3.13;83.11
70323;BME280;57735;56.264;43.898;2024-01-25T04:09:08;100002.34;;;-3.14;83.27
70323;BME280;57735;56.264;43.898;2024-01-25T04:11:39;100000.66;;;-3.15;83.47
70323;BME280;57735;56.264;43.898;2024-01-25T04:14:10;100011.94;;;-3.14;83.42
70323;BME280;57735;56.264;43.898;2024-01-25T04:16:41;99991.06;;;-3.14;83.37
70323;BME280;57735;56.264;43.898;2024-01-25T04:19:12;99984.03;;;-3.12;83.51
70323;BME280;57735;56.264;43.898;2024-01-25T04:21:43;100000.44;;;-3.10;83.56
70323;BME280;57735;56.264;43.898;2024-01-25T04:24:14;99989.09;;;-3.09;83.16
70323;BME280;57735;56.264;43.898;2024-01-25T04:26:44;99989.00;;;-3.08;83.16
70323;BME280;57735;56.264;43.898;2024-01-25T04:29:15;99992.38;;;-3.06;83.21
70323;BME280;57735;56.264;43.898;2024-01-25T04:31:46;99994.16;;;-3.06;82.91
70323;BME280;57735;56.264;43.898;2024-01-25T04:34:21;100001.06;;;-3.05;82.93
70323;BME280;57735;56.264;43.898;2024-01-25T04:36:52;100010.72;;;-3.07;83.00
70323;BME280;57735;56.264;43.898;2024-01-25T04:39:23;100005.72;;;-3.12;82.71
70323;BME280;57735;56.264;43.898;2024-01-25T04:41:54;100000.66;;;-3.15;82.79
70323;BME280;57735;56.264;43.898;2024-01-25T04:44:31;100005.09;;;-3.17;82.62
70323;BME280;57735;56.264;43.898;2024-01-25T04:47:02;100010.25;;;-3.16;83.10
70323;BME280;57735;56.264;43.898;2024-01-25T04:49:35;100024.97;;;-3.14;82.92
70323;BME280;57735;56.264;43.898;2024-01-25T04:52:06;100011.16;;;-3.17;82.82
70323;BME280;57735;56.264;43.898;2024-01-25T04:54:37;100008.88;;;-3.23;82.68
70323;BME280;57735;56.264;43.898;2024-01-25T04:57:08;100016.00;;;-3.26;82.94
70323;BME280;57735;56.264;43.898;2024-01-25T04:59:39;100006.41;;;-3.26;82.86
70323;BME280;57735;56.264;43.898;2024-01-25T05:02:09;100013.31;;;-3.25;83.08
70323;BME280;57735;56.264;43.898;2024-01-25T05:04:40;100021.00;;;-3.22;82.98
70323;BME280;57735;56.264;43.898;2024-01-25T05:07:11;100011.16;;;-3.17;83.19
70323;BME280;57735;56.264;43.898;2024-01-25T05:09:42;100017.00;;;-3.11;82.88
70323;BME280;57735;56.264;43.898;2024-01-25T05:12:12;100007.25;;;-3.08;82.87
70323;BME280;57735;56.264;43.898;2024-01-25T05:14:43;100005.44;;;-3.06;82.58
70323;BME280;57735;56.264;43.898;2024-01-25T05:17:14;99999.28;;;-3.05;82.67
70323;BME280;57735;56.264;43.898;2024-01-25T05:19:45;99996.53;;;-3.02;82.54
70323;BME280;57735;56.264;43.898;2024-01-25T05:22:18;100004.25;;;-3.00;82.60
70323;BME280;57735;56.264;43.898;2024-01-25T05:24:49;99996.28;;;-2.97;82.30
70323;BME280;57735;56.264;43.898;2024-01-25T05:27:20;100000.50;;;-2.95;82.45
70323;BME280;57735;56.264;43.898;2024-01-25T05:29:50;100007.31;;;-2.92;82.07
70323;BME280;57735;56.264;43.898;2024-01-25T05:32:21;100003.09;;;-2.95;81.66
70323;BME280;57735;56.264;43.898;2024-01-25T05:34:52;100012.69;;;-2.95;81.67
70323;BME280;57735;56.264;43.898;2024-01-25T05:37:23;100015.31;;;-2.95;81.76
70323;BME280;57735;56.264;43.898;2024-01-25T05:39:53;100020.44;;;-2.94;81.81
70323;BME280;57735;56.264;43.898;2024-01-25T05:42:24;100008.94;;;-2.90;81.58
70323;BME280;57735;56.264;43.898;2024-01-25T05:44:55;100020.22;;;-2.89;81.36
70323;BME280;57735;56.264;43.898;2024-01-25T05:47:26;100011.63;;;-2.91;81.45
70323;BME280;57735;56.264;43.898;2024-01-25T05:50:00;100014.47;;;-2.96;81.45
70323;BME280;57735;56.264;43.898;2024-01-25T05:52:31;100022.34;;;-2.97;81.01
70323;BME280;57735;56.264;43.898;2024-01-25T05:55:02;100014.69;;;-3.00;81.26
70323;BME280;57735;56.264;43.898;2024-01-25T05:57:37;100015.53;;;-3.00;81.37
70323;BME280;57735;56.264;43.898;2024-01-25T06:00:08;100015.22;;;-2.94;81.58
70323;BME280;57735;56.264;43.898;2024-01-25T06:02:41;100016.69;;;-2.88;81.44
70323;BME280;57735;56.264;43.898;2024-01-25T06:05:16;100018.97;;;-2.82;81.39
70323;BME280;57735;56.264;43.898;2024-01-25T06:07:47;100016.13;;;-2.77;81.13
70323;BME280;57735;56.264;43.898;2024-01-25T06:10:20;100018.66;;;-2.76;80.69
70323;BME280;57735;56.264;43.898;2024-01-25T06:12:51;100017.81;;;-2.76;80.62
70323;BME280;57735;56.264;43.898;2024-01-25T06:15:22;100019.44;;;-2.74;80.52
70323;BME280;57735;56.264;43.898;2024-01-25T06:17:56;100011.47;;;-2.71;80.48
70323;BME280;57735;56.264;43.898;2024-01-25T06:20:27;100021.88;;;-2.71;80.34
70323;BME280;57735;56.264;43.898;2024-01-25T06:22:57;100017.50;;;-2.70;80.14
70323;BME280;57735;56.264;43.898;2024-01-25T06:25:28;100021.88;;;-2.71;80.24
70323;BME280;57735;56.264;43.898;2024-01-25T06:28:03;100016.50;;;-2.68;80.17
70323;BME280;57735;56.264;43.898;2024-01-25T06:30:36;100024.16;;;-2.65;80.23
70323;BME280;57735;56.264;43.898;2024-01-25T06:33:07;100025.16;;;-2.67;79.99
70323;BME280;57735;56.264;43.898;2024-01-25T06:35:38;100027.03;;;-2.69;80.06
70323;BME280;57735;56.264;43.898;2024-01-25T06:38:09;100026.84;;;-2.66;80.03
70323;BME280;57735;56.264;43.898;2024-01-25T06:40:40;100014.66;;;-2.66;79.71
70323;BME280;57735;56.264;43.898;2024-01-25T06:43:10;100031.16;;;-2.65;79.83
70323;BME280;57735;56.264;43.898;2024-01-25T06:45:42;100025.94;;;-2.65;79.54
70323;BME280;57735;56.264;43.898;2024-01-25T06:48:13;100026.63;;;-2.62;79.40
70323;BME280;57735;56.264;43.898;2024-01-25T06:50:43;100019.88;;;-2.66;79.30
70323;BME280;57735;56.264;43.898;2024-01-25T06:53:14;100020.19;;;-2.72;79.11
70323;BME280;57735;56.264;43.898;2024-01-25T06:55:45;100023.72;;;-2.73;79.33
70323;BME280;57735;56.264;43.898;2024-01-25T06:58:16;100023.88;;;-2.76;79.39
70323;BME280;57735;56.264;43.898;2024-01-25T07:00:47;100021.13;;;-2.73;79.40
70323;BME280;57735;56.264;43.898;2024-01-25T07:03:18;100032.41;;;-2.72;79.28
70323;BME280;57735;56.264;43.898;2024-01-25T07:05:49;100024.66;;;-2.74;79.37
70323;BME280;57735;56.264;43.898;2024-01-25T07:08:19;100036.31;;;-2.81;79.20
70323;BME280;57735;56.264;43.898;2024-01-25T07:10:50;100031.94;;;-2.81;79.48
70323;BME280;57735;56.264;43.898;2024-01-25T07:13:21;100031.63;;;-2.74;79.49
70323;BME280;57735;56.264;43.898;2024-01-25T07:15:52;100025.84;;;-2.64;79.60
70323;BME280;57735;56.264;43.898;2024-01-25T07:18:26;100025.47;;;-2.56;79.25
70323;BME280;57735;56.264;43.898;2024-01-25T07:20:57;100025.13;;;-2.50;78.61
70323;BME280;57735;56.264;43.898;2024-01-25T07:23:38;100022.06;;;-2.41;78.62
70323;BME280;57735;56.264;43.898;2024-01-25T07:26:22;100023.66;;;-2.38;78.31
70323;BME280;57735;56.264;43.898;2024-01-25T07:28:57;100021.63;;;-2.33;78.54
70323;BME280;57735;56.264;43.898;2024-01-25T07:31:32;100040.34;;;-2.25;78.54
70323;BME280;57735;56.264;43.898;2024-01-25T07:34:04;100033.97;;;-2.20;78.23
70323;BME280;57735;56.264;43.898;2024-01-25T07:36:35;100024.88;;;-2.13;77.98
70323;BME280;57735;56.264;43.898;2024-01-25T07:39:06;100032.63;;;-2.11;78.00
70323;BME280;57735;56.264;43.898;2024-01-25T07:41:37;100042.75;;;-2.05;77.81
70323;BME280;57735;56.264;43.898;2024-01-25T07:44:08;100033.72;;;-1.99;77.56
70323;BME280;57735;56.264;43.898;2024-01-25T07:46:43;100031.53;;;-2.07;76.66
70323;BME280;57735;56.264;43.898;2024-01-25T07:49:14;100034.56;;;-2.15;76.63
70323;BME280;57735;56.264;43.898;2024-01-25T07:51:46;100035.66;;;-2.19;76.88
70323;BME280;57735;56.264;43.898;2024-01-25T07:54:19;100042.97;;;-2.25;77.21
70323;BME280;57735;56.264;43.898;2024-01-25T07:56:52;100043.66;;;-2.22;77.31
70323;BME280;57735;56.264;43.898;2024-01-25T07:59:23;100044.91;;;-2.13;77.07
70323;BME280;57735;56.264;43.898;2024-01-25T08:01:54;100042.06;;;-2.08;76.65
70323;BME280;57735;56.264;43.898;2024-01-25T08:04:24;100033.47;;;-2.11;76.44
70323;BME280;57735;56.264;43.898;2024-01-25T08:06:55;100029.31;;;-2.15;76.03
70323;BME280;57735;56.264;43.898;2024-01-25T08:09:27;100031.28;;;-2.18;76.46
70323;BME280;57735;56.264;43.898;2024-01-25T08:11:57;100032.03;;;-2.16;76.85
70323;BME280;57735;56.264;43.898;2024-01-25T08:14:28;100031.47;;;-2.05;76.45
70323;BME280;57735;56.264;43.898;2024-01-25T08:16:59;100028.78;;;-2.04;76.16
70323;BME280;57735;56.264;43.898;2024-01-25T08:19:33;100028.78;;;-2.04;75.85
70323;BME280;57735;56.264;43.898;2024-01-25T08:22:04;100032.47;;;-2.08;75.47
70323;BME280;57735;56.264;43.898;2024-01-25T08:24:35;100027.31;;;-2.09;75.57
70323;BME280;57735;56.264;43.898;2024-01-25T08:27:08;100034.06;;;-2.05;75.68
70323;BME280;57735;56.264;43.898;2024-01-25T08:29:39;100031.63;;;-1.93;75.83
70323;BME280;57735;56.264;43.898;2024-01-25T08:32:10;100029.88;;;-1.92;75.03
70323;BME280;57735;56.264;43.898;2024-01-25T08:34:41;100028.34;;;-1.96;74.74
70323;BME280;57735;56.264;43.898;2024-01-25T08:37:15;100032.56;;;-1.94;74.85
70323;BME280;57735;56.264;43.898;2024-01-25T08:39:46;100037.25;;;-2.00;74.66
70323;BME280;57735;56.264;43.898;2024-01-25T08:42:21;100040.63;;;-1.98;74.88
70323;BME280;57735;56.264;43.898;2024-01-25T08:44:52;100038.88;;;-1.98;74.66
70323;BME280;57735;56.264;43.898;2024-01-25T08:47:23;100033.41;;;-1.93;74.43
70323;BME280;57735;56.264;43.898;2024-01-25T08:49:54;100030.88;;;-1.95;74.27
70323;BME280;57735;56.264;43.898;2024-01-25T08:52:27;100026.41;;;-1.93;74.36
70323;BME280;57735;56.264;43.898;2024-01-25T08:54:58;100032.31;;;-1.89;74.32
70323;BME280;57735;56.264;43.898;2024-01-25T08:57:28;100029.63;;;-1.88;74.25
70323;BME280;57735;56.264;43.898;2024-01-25T08:59:59;100035.84;;;-1.90;74.00
70323;BME280;57735;56.264;43.898;2024-01-25T09:02:36;100035.94;;;-1.92;73.82
70323;BME280;57735;56.264;43.898;2024-01-25T09:05:07;100038.53;;;-1.92;73.83
70323;BME280;57735;56.264;43.898;2024-01-25T09:07:38;100026.41;;;-1.93;73.37
70323;BME280;57735;56.264;43.898;2024-01-25T09:10:09;100033.94;;;-1.87;73.67
70323;BME280;57735;56.264;43.898;2024-01-25T09:12:44;100032.81;;;-1.83;73.58
70323;BME280;57735;56.264;43.898;2024-01-25T09:15:15;100031.63;;;-1.77;73.71
70323;BME280;57735;56.264;43.898;2024-01-25T09:17:48;100021.78;;;-1.72;73.36
70323;BME280;57735;56.264;43.898;2024-01-25T09:20:19;100028.78;;;-1.72;72.98
70323;BME280;57735;56.264;43.898;2024-01-25T09:22:51;100023.88;;;-1.79;73.05
70323;BME280;57735;56.264;43.898;2024-01-25T09:25:24;100020.34;;;-1.78;73.16
70323;BME280;57735;56.264;43.898;2024-01-25T09:27:55;100032.66;;;-1.80;73.26
70323;BME280;57735;56.264;43.898;2024-01-25T09:30:27;100030.03;;;-1.80;73.29
70323;BME280;57735;56.264;43.898;2024-01-25T09:32:59;100040.31;;;-1.77;73.37
70323;BME280;57735;56.264;43.898;2024-01-25T09:35:30;100036.94;;;-1.79;73.07
70323;BME280;57735;56.264;43.898;2024-01-25T09:38:01;100033.94;;;-1.87;72.61
70323;BME280;57735;56.264;43.898;2024-01-25T09:40:32;100029.88;;;-1.92;73.02
70323;BME280;57735;56.264;43.898;2024-01-25T09:43:04;100034.84;;;-1.88;73.55
70323;BME280;57735;56.264;43.898;2024-01-25T09:45:35;100025.91;;;-1.84;73.35
70323;BME280;57735;56.264;43.898;2024-01-25T09:48:08;100034.78;;;-1.86;73.29
70323;BME280;57735;56.264;43.898;2024-01-25T09:50:39;100033.25;;;-1.90;73.13
70323;BME280;57735;56.264;43.898;2024-01-25T09:53:10;100034.84;;;-1.88;73.28
70323;BME280;57735;56.264;43.898;2024-01-25T09:55:46;100038.03;;;-1.83;73.46
70323;BME280;57735;56.264;43.898;2024-01-25T09:58:19;100022.56;;;-1.86;72.68
70323;BME280;57735;56.264;43.898;2024-01-25T10:00:50;100028.94;;;-1.91;72.95
70323;BME280;57735;56.264;43.898;2024-01-25T10:03:26;100027.19;;;-1.91;72.90
70323;BME280;57735;56.264;43.898;2024-01-25T10:05:57;100031.78;;;-1.96;73.21
70323;BME280;57735;56.264;43.898;2024-01-25T10:08:29;100026.72;;;-1.99;73.28
70323;BME280;57735;56.264;43.898;2024-01-25T10:11:00;100036.19;;;-1.96;73.39
70323;BME280;57735;56.264;43.898;2024-01-25T10:13:31;100036.34;;;-1.99;73.10
70323;BME280;57735;56.264;43.898;2024-01-25T10:16:02;100027.66;;;-2.00;73.18
70323;BME280;57735;56.264;43.898;2024-01-25T10:18:33;100022.44;;;-2.00;73.32
70323;BME280;57735;56.264;43.898;2024-01-25T10:21:06;100032.63;;;-1.95;73.22
70323;BME280;57735;56.264;43.898;2024-01-25T10:23:37;100021.34;;;-1.96;73.12
70323;BME280;57735;56.264;43.898;2024-01-25T10:26:08;100033.41;;;-1.93;72.98
70323;BME280;57735;56.264;43.898;2024-01-25T10:28:40;100031.47;;;-1.90;72.86
70323;BME280;57735;56.264;43.898;2024-01-25T10:31:11;100027.84;;;-1.87;72.82
70323;BME280;57735;56.264;43.898;2024-01-25T10:33:46;100033.56;;;-1.81;73.00
70323;BME280;57735;56.264;43.898;2024-01-25T10:36:18;100039.47;;;-1.77;72.89
70323;BME280;57735;56.264;43.898;2024-01-25T10:38:49;100039.38;;;-1.76;72.58
70323;BME280;57735;56.264;43.898;2024-01-25T10:41:26;100030.97;;;-1.81;72.59
70323;BME280;57735;56.264;43.898;2024-01-25T10:43:57;100034.50;;;-1.82;72.48
70323;BME280;57735;56.264;43.898;2024-01-25T10:46:29;100025.56;;;-1.78;72.67
70323;BME280;57735;56.264;43.898;2024-01-25T10:49:00;100020.50;;;-1.81;72.70
70323;BME280;57735;56.264;43.898;2024-01-25T10:51:32;100023.41;;;-1.85;72.43
70323;BME280;57735;56.264;43.898;2024-01-25T10:54:07;100031.22;;;-1.85;72.64
70323;BME280;57735;56.264;43.898;2024-01-25T10:56:41;100027.78;;;-1.86;72.98
70323;BME280;57735;56.264;43.898;2024-01-25T10:59:12;100031.31;;;-1.87;73.04
70323;BME280;57735;56.264;43.898;2024-01-25T11:01:46;100033.25;;;-1.90;72.67
70323;BME280;57735;56.264;43.898;2024-01-25T11:04:19;100023.81;;;-1.93;72.77
70323;BME280;57735;56.264;43.898;2024-01-25T11:06:50;100030.03;;;-1.95;72.92
70323;BME280;57735;56.264;43.898;2024-01-25T11:09:21;100031.78;;;-1.96;73.18
70323;BME280;57735;56.264;43.898;2024-01-25T11:11:54;100040.41;;;-1.94;73.17
70323;BME280;57735;56.264;43.898;2024-01-25T11:14:25;100041.25;;;-1.93;73.39
70323;BME280;57735;56.264;43.898;2024-01-25T11:16:56;100043.09;;;-1.95;73.20
70323;BME280;57735;56.264;43.898;2024-01-25T11:19:27;100032.56;;;-1.94;73.36
70323;BME280;57735;56.264;43.898;2024-01-25T11:22:03;100036.25;;;-1.98;73.36
70323;BME280;57735;56.264;43.898;2024-01-25T11:24:38;100037.38;;;-2.02;73.55
70323;BME280;57735;56.264;43.898;2024-01-25T11:27:13;100042.47;;;-2.00;73.54
70323;BME280;57735;56.264;43.898;2024-01-25T11:29:44;100044.44;;;-2.04;73.36
70323;BME280;57735;56.264;43.898;2024-01-25T11:32:15;100051.66;;;-2.09;73.43
70323;BME280;57735;56.264;43.898;2024-01-25T11:34:46;100050.75;;;-2.08;73.74
70323;BME280;57735;56.264;43.898;2024-01-25T11:37:16;100049.81;;;-2.07;73.70
70323;BME280;57735;56.264;43.898;2024-01-25T11:39:48;100047.97;;;-2.05;73.90
70323;BME280;57735;56.264;43.898;2024-01-25T11:42:19;100051.97;;;-2.15;73.93
70323;BME280;57735;56.264;43.898;2024-01-25T11:44:53;100051.63;;;-2.25;74.10
70323;BME280;57735;56.264;43.898;2024-01-25T11:47:24;100056.31;;;-2.31;74.47
70323;BME280;57735;56.264;43.898;2024-01-25T11:49:55;100061.88;;;-2.37;74.42
70323;BME280;57735;56.264;43.898;2024-01-25T11:52:25;100051.75;;;-2.43;74.70
70323;BME280;57735;56.264;43.898;2024-01-25T11:54:57;100050.38;;;-2.51;75.25
70323;BME280;57735;56.264;43.898;2024-01-25T11:57:28;100060.66;;;-2.48;75.37
70323;BME280;57735;56.264;43.898;2024-01-25T12:00:01;100055.53;;;-2.49;75.13
70323;BME280;57735;56.264;43.898;2024-01-25T12:02:38;100058.47;;;-2.55;75.29
70323;BME280;57735;56.264;43.898;2024-01-25T12:05:10;100058.00;;;-2.63;75.26
70323;BME280;57735;56.264;43.898;2024-01-25T12:07:44;100056.38;;;-2.66;76.02
70323;BME280;57735;56.264;43.898;2024-01-25T12:10:16;100063.38;;;-2.66;75.65
70323;BME280;57735;56.264;43.898;2024-01-25T12:12:53;100056.56;;;-2.69;76.16
70323;BME280;57735;56.264;43.898;2024-01-25T12:15:23;100054.63;;;-2.65;76.00
70323;BME280;57735;56.264;43.898;2024-01-25T12:17:54;100065.81;;;-2.63;76.61
70323;BME280;57735;56.264;43.898;2024-01-25T12:20:28;100065.97;;;-2.66;76.39
70323;BME280;57735;56.264;43.898;2024-01-25T12:22:59;100065.31;;;-2.70;76.20
70323;BME280;57735;56.264;43.898;2024-01-25T12:25:30;100067.16;;;-2.72;76.53
70323;BME280;57735;56.264;43.898;2024-01-25T12:28:01;100064.47;;;-2.70;76.40
70323;BME280;57735;56.264;43.898;2024-01-25T12:30:31;100069.69;;;-2.70;76.41
70323;BME280;57735;56.264;43.898;2024-01-25T12:33:04;100074.28;;;-2.75;76.34
70323;BME280;57735;56.264;43.898;2024-01-25T12:35:35;100077.59;;;-2.72;76.78
70323;BME280;57735;56.264;43.898;2024-01-25T12:38:07;100066.59;;;-2.61;76.52
70323;BME280;57735;56.264;43.898;2024-01-25T12:40:38;100062.69;;;-2.53;76.29
70323;BME280;57735;56.264;43.898;2024-01-25T12:43:09;100066.72;;;-2.47;76.17
70323;BME280;57735;56.264;43.898;2024-01-25T12:45:40;100058.50;;;-2.39;76.16
70323;BME280;57735;56.264;43.898;2024-01-25T12:48:11;100067.38;;;-2.26;76.08
70323;BME280;57735;56.264;43.898;2024-01-25T12:50:42;100064.69;;;-2.25;75.22
70323;BME280;57735;56.264;43.898;2024-01-25T12:53:13;100062.00;;;-2.23;75.31
70323;BME280;57735;56.264;43.898;2024-01-25T12:55:47;100060.75;;;-2.16;75.47
70323;BME280;57735;56.264;43.898;2024-01-25T12:58:18;100058.88;;;-2.14;75.04
70323;BME280;57735;56.264;43.898;2024-01-25T13:00:49;100065.03;;;-2.15;74.89
70323;BME280;57735;56.264;43.898;2024-01-25T13:03:19;100071.03;;;-2.13;75.05